Time;durP1;ratioP1;P1;durP2;ratioP2;P2;SDS_P1;SDS_P2;PMS_P1;PMS_P2;Temp;Humidity;BMP_temperature;BMP_pressure;BME280_temperature;BME280_humidity;BME280_pressure;Samples;Min_cycle;Max_cycle;Signal;HPM_P1;HPM_P2
2023/07/24 00:00:19;;;;;;;;;;;18.70;99.90;;;;;;5045446;28;19924;-87
2023/07/24 00:02:45;;;;;;;;;;;18.70;99.90;;;;;;5034436;28;19956;-87
2023/07/24 00:05:10;;;;;;;;;;;18.70;99.90;;;;;;5039342;28;19917;-87
2023/07/24 00:07:36;;;;;;;;;;;18.70;99.90;;;;;;5043228;28;19939;-88
2023/07/24 00:10:02;;;;;;;;;;;18.70;99.90;;;;;;5039941;28;19933;-87
2023/07/24 00:12:27;;;;;;;;;;;18.70;99.90;;;;;;5035150;28;19917;-87
2023/07/24 00:14:53;;;;;;;;;;;18.70;99.90;;;;;;5036466;28;19920;-87
2023/07/24 00:17:18;;;;;;;;;;;18.70;99.90;;;;;;5034050;28;19920;-88
2023/07/24 00:19:44;;;;;;;;;;;18.70;99.90;;;;;;5037122;28;19983;-88
2023/07/24 00:22:09;;;;;;;;;;;18.70;99.90;;;;;;5039286;28;19959;-87
2023/07/24 00:24:35;;;;;;;;;;;18.60;99.90;;;;;;5037807;28;19973;-87
2023/07/24 00:27:02;;;;;;;;;;;18.60;99.90;;;;;;5055022;28;20298;-87
2023/07/24 00:29:28;;;;;;;;;;;18.60;99.90;;;;;;5039309;28;19929;-88
2023/07/24 00:31:53;;;;;;;;;;;18.60;99.90;;;;;;5040565;28;19929;-89
2023/07/24 00:34:19;;;;;;;;;;;18.60;99.90;;;;;;5040451;28;19914;-88
2023/07/24 00:36:44;;;;;;;;;;;18.50;99.90;;;;;;5045299;28;19948;-87
2023/07/24 00:39:10;;;;;;;;;;;18.50;99.90;;;;;;5038110;28;19971;-87
2023/07/24 00:41:36;;;;;;;;;;;18.50;99.90;;;;;;5046208;28;20294;-86
2023/07/24 00:44:01;;;;;;;;;;;18.50;99.90;;;;;;5039288;28;20381;-86
2023/07/24 00:46:31;;;;;;;;;;;18.50;99.90;;;;;;5042254;28;19917;-86
2023/07/24 00:48:57;;;;;;;;;;;18.40;99.90;;;;;;5037176;28;19927;-86
2023/07/24 00:51:23;;;;;;;;;;;18.40;99.90;;;;;;5035913;28;19913;-86
2023/07/24 00:53:48;;;;;;;;;;;18.40;99.90;;;;;;5038025;28;20404;-87
2023/07/24 00:56:14;;;;;;;;;;;18.40;99.90;;;;;;5038024;28;20412;-87
2023/07/24 00:58:40;;;;;;;;;;;18.40;99.90;;;;;;5054918;28;19958;-87
2023/07/24 01:01:05;;;;;;;;;;;18.30;99.90;;;;;;5035652;28;19917;-86
2023/07/24 01:03:35;;;;;;;;;;;18.30;99.90;;;;;;5051387;28;19963;-86
2023/07/24 01:06:03;;;;;;;;;;;18.30;99.90;;;;;;5044263;28;19960;-88
2023/07/24 01:08:29;;;;;;;;;;;18.30;99.90;;;;;;5053819;28;19921;-87
2023/07/24 01:11:03;;;;;;;;;;;18.40;99.90;;;;;;5035422;28;19924;-87
2023/07/24 01:13:31;;;;;;;;;;;18.40;99.90;;;;;;5037273;28;19913;-86
2023/07/24 01:16:01;;;;;;;;;;;18.30;99.90;;;;;;5052010;28;20030;-86
2023/07/24 01:18:28;;;;;;;;;;;18.40;99.90;;;;;;5051128;28;20248;-86
2023/07/24 01:20:56;;;;;;;;;;;18.40;99.90;;;;;;5038787;28;20003;-86
2023/07/24 01:23:40;;;;;;;;;;;18.40;99.90;;;;;;5037114;28;20379;-86
2023/07/24 01:26:06;;;;;;;;;;;18.40;99.90;;;;;;5035909;28;19921;-86
2023/07/24 01:28:32;;;;;;;;;;;18.40;99.90;;;;;;5045330;28;19921;-86
2023/07/24 01:30:57;;;;;;;;;;;18.40;99.90;;;;;;5044593;28;20015;-87
2023/07/24 01:33:23;;;;;;;;;;;18.40;99.90;;;;;;5044046;28;19916;-87
2023/07/24 01:35:50;;;;;;;;;;;18.40;99.90;;;;;;5050918;28;20004;-88
2023/07/24 01:38:16;;;;;;;;;;;18.40;99.90;;;;;;5051325;28;19920;-87
2023/07/24 01:40:42;;;;;;;;;;;18.40;99.90;;;;;;5036321;28;20374;-87
2023/07/24 01:43:08;;;;;;;;;;;18.40;99.90;;;;;;5036522;28;20610;-87
2023/07/24 01:45:33;;;;;;;;;;;18.40;99.90;;;;;;5034792;28;19921;-87
2023/07/24 01:47:59;;;;;;;;;;;18.40;99.90;;;;;;5045101;28;19917;-86
2023/07/24 01:50:24;;;;;;;;;;;18.40;99.90;;;;;;5033675;28;19956;-86
2023/07/24 01:52:50;;;;;;;;;;;18.40;99.90;;;;;;5051449;28;19921;-86
2023/07/24 01:55:15;;;;;;;;;;;18.40;99.90;;;;;;5052287;28;19924;-86
2023/07/24 01:57:41;;;;;;;;;;;18.40;99.90;;;;;;5037356;28;19970;-86
2023/07/24 02:00:08;;;;;;;;;;;18.40;99.90;;;;;;5033825;28;19923;-86
2023/07/24 02:02:33;;;;;;;;;;;18.40;99.90;;;;;;5050999;28;20775;-86
2023/07/24 02:04:59;;;;;;;;;;;18.40;99.90;;;;;;5051215;28;19917;-85
2023/07/24 02:07:24;;;;;;;;;;;18.40;99.90;;;;;;5035117;28;20298;-86
2023/07/24 02:09:50;;;;;;;;;;;18.40;99.90;;;;;;5036965;28;19932;-85
2023/07/24 02:12:15;;;;;;;;;;;18.30;99.90;;;;;;5052202;28;19921;-85
2023/07/24 02:14:41;;;;;;;;;;;18.40;99.90;;;;;;5050737;28;20023;-86
2023/07/24 02:17:06;;;;;;;;;;;18.40;99.90;;;;;;5035085;28;19921;-86
2023/07/24 02:19:31;;;;;;;;;;;18.40;99.90;;;;;;5034795;28;20001;-86
2023/07/24 02:21:57;;;;;;;;;;;18.40;99.90;;;;;;5035603;28;19917;-85
2023/07/24 02:24:22;;;;;;;;;;;18.40;99.90;;;;;;5035940;28;21732;-87
2023/07/24 02:26:48;;;;;;;;;;;18.40;99.90;;;;;;5052541;28;19924;-85
2023/07/24 02:29:13;;;;;;;;;;;18.40;99.90;;;;;;5045189;28;19921;-86
2023/07/24 02:31:39;;;;;;;;;;;18.50;99.90;;;;;;5036030;28;19917;-86
2023/07/24 02:34:04;;;;;;;;;;;18.50;99.90;;;;;;5050828;28;20791;-87
2023/07/24 02:36:30;;;;;;;;;;;18.50;99.90;;;;;;5036144;28;19917;-86
2023/07/24 02:38:55;;;;;;;;;;;18.50;99.90;;;;;;5036147;28;19924;-85
2023/07/24 02:41:21;;;;;;;;;;;18.40;99.90;;;;;;5045683;28;20398;-86
2023/07/24 02:43:46;;;;;;;;;;;18.50;99.90;;;;;;5050518;28;19917;-86
2023/07/24 02:46:12;;;;;;;;;;;18.40;99.90;;;;;;5051401;28;19928;-86
2023/07/24 02:48:37;;;;;;;;;;;18.50;99.90;;;;;;5050413;28;19924;-86
2023/07/24 02:51:03;;;;;;;;;;;18.50;99.90;;;;;;5036426;28;20366;-87
2023/07/24 02:53:28;;;;;;;;;;;18.40;99.90;;;;;;5050977;28;20843;-87
2023/07/24 02:55:54;;;;;;;;;;;18.40;99.90;;;;;;5053418;28;19921;-86
2023/07/24 02:58:19;;;;;;;;;;;18.40;99.90;;;;;;5034213;28;19928;-87
2023/07/24 03:00:45;;;;;;;;;;;18.50;99.90;;;;;;5043308;28;19962;-87
2023/07/24 03:03:10;;;;;;;;;;;18.40;99.90;;;;;;5050100;28;19919;-86
2023/07/24 03:05:36;;;;;;;;;;;18.40;99.90;;;;;;5036659;28;19917;-86
2023/07/24 03:08:01;;;;;;;;;;;18.30;99.90;;;;;;5055938;28;20315;-86
2023/07/24 03:10:27;;;;;;;;;;;18.30;99.90;;;;;;5050513;28;19928;-86
2023/07/24 03:12:52;;;;;;;;;;;18.20;99.90;;;;;;5034090;28;20011;-86
2023/07/24 03:15:18;;;;;;;;;;;18.20;99.90;;;;;;5033411;28;20371;-87
2023/07/24 03:17:43;;;;;;;;;;;18.10;99.90;;;;;;5050804;28;20013;-87
2023/07/24 03:20:16;;;;;;;;;;;18.10;99.90;;;;;;5035144;28;20007;-85
2023/07/24 03:22:42;;;;;;;;;;;18.10;99.90;;;;;;5049803;28;20318;-85
2023/07/24 03:25:08;;;;;;;;;;;18.00;99.90;;;;;;5035685;28;19979;-86
2023/07/24 03:27:33;;;;;;;;;;;18.00;99.90;;;;;;5051190;28;19921;-86
2023/07/24 03:29:59;;;;;;;;;;;18.00;99.90;;;;;;5035956;28;20367;-87
2023/07/24 03:32:24;;;;;;;;;;;17.90;99.90;;;;;;5050243;28;20279;-87
2023/07/24 03:34:49;;;;;;;;;;;17.90;99.90;;;;;;5051809;28;19917;-87
2023/07/24 03:37:15;;;;;;;;;;;17.90;99.90;;;;;;5046420;28;20327;-87
2023/07/24 03:39:40;;;;;;;;;;;17.90;99.90;;;;;;5044612;28;19971;-88
2023/07/24 03:42:06;;;;;;;;;;;17.90;99.90;;;;;;5037059;28;19913;-88
2023/07/24 03:44:31;;;;;;;;;;;17.80;99.90;;;;;;5034785;28;20974;-87
2023/07/24 03:46:57;;;;;;;;;;;17.80;99.90;;;;;;5037061;28;19933;-87
2023/07/24 03:49:22;;;;;;;;;;;17.80;99.90;;;;;;5042139;28;19931;-87
2023/07/24 03:51:48;;;;;;;;;;;17.70;99.90;;;;;;5036819;28;19917;-88
2023/07/24 03:54:13;;;;;;;;;;;17.70;99.90;;;;;;5054165;28;20417;-88
2023/07/24 03:56:39;;;;;;;;;;;17.70;99.90;;;;;;5039501;28;19935;-88
2023/07/24 03:59:06;;;;;;;;;;;17.70;99.90;;;;;;5041277;28;19914;-87
2023/07/24 04:01:32;;;;;;;;;;;17.60;99.90;;;;;;5039259;28;19917;-88
2023/07/24 04:03:58;;;;;;;;;;;17.60;99.90;;;;;;5046665;28;20351;-87
2023/07/24 04:06:24;;;;;;;;;;;17.60;99.90;;;;;;5036821;28;19928;-86
2023/07/24 04:08:49;;;;;;;;;;;17.60;99.90;;;;;;5038326;28;20275;-87
2023/07/24 04:11:15;;;;;;;;;;;17.60;99.90;;;;;;5054875;28;19920;-86
2023/07/24 04:13:40;;;;;;;;;;;17.50;99.90;;;;;;5037136;28;20064;-85
2023/07/24 04:16:06;;;;;;;;;;;17.50;99.90;;;;;;5053646;28;19961;-87
2023/07/24 04:18:31;;;;;;;;;;;17.50;99.90;;;;;;5037892;28;19917;-86
2023/07/24 04:20:57;;;;;;;;;;;17.50;99.90;;;;;;5036402;28;19923;-85
2023/07/24 04:23:22;;;;;;;;;;;17.50;99.90;;;;;;5037840;28;20374;-86
2023/07/24 04:25:51;;;;;;;;;;;17.50;99.90;;;;;;5049584;28;19917;-86
2023/07/24 04:28:16;;;;;;;;;;;17.40;99.90;;;;;;5039052;28;20331;-87
2023/07/24 04:30:41;;;;;;;;;;;17.40;99.90;;;;;;5038786;28;19925;-87
2023/07/24 04:33:07;;;;;;;;;;;17.40;99.90;;;;;;5053508;28;19935;-86
2023/07/24 04:35:33;;;;;;;;;;;17.40;99.90;;;;;;5036727;28;19921;-85
2023/07/24 04:37:59;;;;;;;;;;;17.40;99.90;;;;;;5024409;28;19917;-85
2023/07/24 04:40:24;;;;;;;;;;;17.40;99.90;;;;;;5038114;28;19947;-85
2023/07/24 04:42:50;;;;;;;;;;;17.40;99.90;;;;;;5022870;28;19962;-85
2023/07/24 04:45:15;;;;;;;;;;;17.30;99.90;;;;;;5038090;28;19921;-86
2023/07/24 04:47:40;;;;;;;;;;;17.40;99.90;;;;;;5026461;28;20381;-88
2023/07/24 04:50:06;;;;;;;;;;;17.40;99.90;;;;;;5023703;28;19925;-88
2023/07/24 04:52:32;;;;;;;;;;;17.40;99.90;;;;;;5034292;28;20465;-86
2023/07/24 04:54:57;;;;;;;;;;;17.30;99.90;;;;;;5035811;28;19917;-88
2023/07/24 04:57:23;;;;;;;;;;;17.30;99.90;;;;;;5052571;28;20054;-87
2023/07/24 04:59:48;;;;;;;;;;;17.30;99.90;;;;;;5055861;28;19923;-87
2023/07/24 05:02:13;;;;;;;;;;;17.30;99.90;;;;;;5053016;28;19959;-86
2023/07/24 05:04:39;;;;;;;;;;;17.30;99.90;;;;;;5049003;28;20095;-86
2023/07/24 05:07:05;;;;;;;;;;;17.30;99.90;;;;;;5051272;28;19917;-86
2023/07/24 05:09:30;;;;;;;;;;;17.20;99.90;;;;;;5051331;28;20398;-87
2023/07/24 05:11:55;;;;;;;;;;;17.20;99.90;;;;;;5043141;28;19925;-87
2023/07/24 05:14:21;;;;;;;;;;;17.20;99.90;;;;;;5049489;28;19939;-86
2023/07/24 05:16:46;;;;;;;;;;;17.20;99.90;;;;;;5050021;28;19939;-86
2023/07/24 05:19:12;;;;;;;;;;;17.20;99.90;;;;;;5033567;28;20307;-87
2023/07/24 05:21:37;;;;;;;;;;;17.20;99.90;;;;;;5035463;28;19960;-87
2023/07/24 05:24:03;;;;;;;;;;;17.30;99.90;;;;;;5043756;28;20363;-87
2023/07/24 05:26:28;;;;;;;;;;;17.30;99.90;;;;;;5049705;28;19924;-86
2023/07/24 05:28:54;;;;;;;;;;;17.30;99.90;;;;;;5032135;28;19925;-88
2023/07/24 05:31:19;;;;;;;;;;;17.30;99.90;;;;;;5051027;28;20070;-87
2023/07/24 05:33:45;;;;;;;;;;;17.30;99.90;;;;;;5043935;28;19921;-87
2023/07/24 05:36:10;;;;;;;;;;;17.40;99.90;;;;;;5037093;28;19948;-88
2023/07/24 05:38:36;;;;;;;;;;;17.40;99.90;;;;;;5036205;28;19925;-86
2023/07/24 05:41:02;;;;;;;;;;;17.40;99.90;;;;;;5034914;28;20491;-86
2023/07/24 05:43:28;;;;;;;;;;;17.40;99.90;;;;;;5034829;28;20275;-86
2023/07/24 05:45:54;;;;;;;;;;;17.40;99.90;;;;;;5035941;28;19912;-87
2023/07/24 05:48:21;;;;;;;;;;;17.40;99.90;;;;;;5033437;28;20020;-86
2023/07/24 05:50:47;;;;;;;;;;;17.50;99.90;;;;;;5040254;28;19935;-87
2023/07/24 05:53:13;;;;;;;;;;;17.50;99.90;;;;;;5055510;28;19917;-87
2023/07/24 05:55:38;;;;;;;;;;;17.50;99.90;;;;;;5051308;28;20007;-87
2023/07/24 05:58:04;;;;;;;;;;;17.50;99.90;;;;;;5037793;28;20721;-87
2023/07/24 06:00:29;;;;;;;;;;;17.50;99.90;;;;;;5044401;28;20027;-88
2023/07/24 06:02:55;;;;;;;;;;;17.50;99.90;;;;;;5050131;28;19917;-86
2023/07/24 06:05:20;;;;;;;;;;;17.50;99.90;;;;;;5034620;28;19929;-86
2023/07/24 06:07:46;;;;;;;;;;;17.50;99.90;;;;;;5036852;28;20598;-86
2023/07/24 06:10:12;;;;;;;;;;;17.50;99.90;;;;;;5033442;28;19925;-86
2023/07/24 06:12:37;;;;;;;;;;;17.60;99.90;;;;;;5050953;28;19924;-86
2023/07/24 06:15:03;;;;;;;;;;;17.60;99.90;;;;;;5049302;28;19927;-86
2023/07/24 06:17:29;;;;;;;;;;;17.60;99.90;;;;;;5034825;28;19917;-86
2023/07/24 06:19:54;;;;;;;;;;;17.60;99.90;;;;;;5044752;28;19913;-85
2023/07/24 06:22:20;;;;;;;;;;;17.60;99.90;;;;;;5050415;28;19917;-86
2023/07/24 06:24:45;;;;;;;;;;;17.60;99.90;;;;;;5051492;28;20590;-87
2023/07/24 06:27:10;;;;;;;;;;;17.60;99.90;;;;;;5036088;28;19952;-90
2023/07/24 06:29:36;;;;;;;;;;;17.60;99.90;;;;;;5055379;28;20429;-90
2023/07/24 06:32:02;;;;;;;;;;;17.70;99.90;;;;;;5038727;28;19939;-90
2023/07/24 06:34:28;;;;;;;;;;;17.60;99.90;;;;;;5036132;28;19928;-88
2023/07/24 06:36:53;;;;;;;;;;;17.70;99.90;;;;;;5038821;28;19936;-89
2023/07/24 06:39:20;;;;;;;;;;;17.70;99.90;;;;;;5033814;28;19917;-87
2023/07/24 06:41:45;;;;;;;;;;;17.80;99.90;;;;;;5030100;28;19923;-85
2023/07/24 06:44:11;;;;;;;;;;;17.90;99.90;;;;;;5048254;28;19920;-86
2023/07/24 06:46:36;;;;;;;;;;;18.00;99.90;;;;;;5034710;28;19963;-85
2023/07/24 06:49:02;;;;;;;;;;;18.00;99.90;;;;;;5035109;28;19931;-85
2023/07/24 06:51:27;;;;;;;;;;;18.00;99.90;;;;;;5034265;28;20043;-85
2023/07/24 06:53:53;;;;;;;;;;;17.90;99.90;;;;;;5043619;28;19943;-87
2023/07/24 06:56:18;;;;;;;;;;;17.90;99.90;;;;;;5032872;28;19924;-86
2023/07/24 06:58:43;;;;;;;;;;;18.00;99.90;;;;;;5034655;28;20281;-87
2023/07/24 07:01:09;;;;;;;;;;;17.90;99.90;;;;;;5036206;28;19996;-87
2023/07/24 07:03:34;;;;;;;;;;;17.90;99.90;;;;;;5035773;28;19932;-87
2023/07/24 07:06:00;;;;;;;;;;;18.00;99.90;;;;;;5049977;28;19925;-87
2023/07/24 07:08:27;;;;;;;;;;;18.00;99.90;;;;;;5034808;28;20322;-86
2023/07/24 07:10:56;;;;;;;;;;;18.10;99.90;;;;;;5048308;28;19932;-86
2023/07/24 07:13:21;;;;;;;;;;;18.20;99.90;;;;;;5048995;28;19913;-85
2023/07/24 07:15:47;;;;;;;;;;;18.30;99.90;;;;;;5048806;28;20312;-87
2023/07/24 07:18:12;;;;;;;;;;;18.40;99.90;;;;;;5035435;28;19963;-87
2023/07/24 07:20:38;;;;;;;;;;;18.40;99.90;;;;;;5035542;28;19928;-85
2023/07/24 07:23:03;;;;;;;;;;;18.50;99.90;;;;;;5034254;28;19917;-87
2023/07/24 07:25:29;;;;;;;;;;;18.60;99.90;;;;;;5033635;28;19983;-87
2023/07/24 07:27:54;;;;;;;;;;;18.80;99.90;;;;;;5042198;28;21372;-89
2023/07/24 07:30:20;;;;;;;;;;;18.90;99.90;;;;;;5035564;28;19932;-88
2023/07/24 07:32:45;;;;;;;;;;;18.90;99.90;;;;;;5051737;28;20000;-88
2023/07/24 07:35:11;;;;;;;;;;;19.00;99.90;;;;;;5036731;28;19932;-88
2023/07/24 07:37:36;;;;;;;;;;;19.10;99.90;;;;;;5051535;28;19921;-89
2023/07/24 07:40:03;;;;;;;;;;;19.10;99.90;;;;;;5051506;28;19924;-88
2023/07/24 07:42:29;;;;;;;;;;;19.10;99.90;;;;;;5032824;28;19996;-87
2023/07/24 07:44:57;;;;;;;;;;;19.10;99.90;;;;;;5033585;28;21935;-90
2023/07/24 07:47:23;;;;;;;;;;;19.00;99.90;;;;;;5033254;28;20358;-89
2023/07/24 07:49:48;;;;;;;;;;;19.00;99.90;;;;;;5036179;28;19925;-89
2023/07/24 07:52:17;;;;;;;;;;;19.00;99.90;;;;;;5032306;28;19917;-89
2023/07/24 07:54:45;;;;;;;;;;;19.00;99.90;;;;;;5035475;28;19952;-88
2023/07/24 07:57:11;;;;;;;;;;;19.10;99.90;;;;;;5052960;28;20015;-89
2023/07/24 07:59:36;;;;;;;;;;;19.10;99.90;;;;;;5051355;28;20000;-88
2023/07/24 08:02:02;;;;;;;;;;;19.00;99.90;;;;;;5052369;28;19923;-86
2023/07/24 08:04:27;;;;;;;;;;;18.90;99.90;;;;;;5044024;28;19915;-87
2023/07/24 08:06:52;;;;;;;;;;;18.70;99.90;;;;;;5050447;28;20004;-86
2023/07/24 08:09:18;;;;;;;;;;;18.60;99.90;;;;;;5032766;28;19928;-87
2023/07/24 08:11:43;;;;;;;;;;;18.40;99.90;;;;;;5036042;28;20397;-89
2023/07/24 08:14:09;;;;;;;;;;;18.20;99.90;;;;;;5052108;28;19959;-86
2023/07/24 08:16:34;;;;;;;;;;;18.00;99.90;;;;;;5038440;28;20036;-87
2023/07/24 08:19:00;;;;;;;;;;;18.00;99.90;;;;;;5034027;28;19963;-86
2023/07/24 08:21:25;;;;;;;;;;;18.10;99.90;;;;;;5033988;28;19921;-86
2023/07/24 08:23:51;;;;;;;;;;;18.10;99.90;;;;;;5048814;28;19917;-86
2023/07/24 08:26:16;;;;;;;;;;;18.20;99.90;;;;;;5030980;28;19924;-87
2023/07/24 08:28:42;;;;;;;;;;;18.20;99.90;;;;;;5034160;28;19931;-87
2023/07/24 08:31:08;;;;;;;;;;;18.30;99.90;;;;;;5043795;28;19946;-86
2023/07/24 08:33:33;;;;;;;;;;;18.40;99.90;;;;;;5050290;28;20445;-88
2023/07/24 08:36:06;;;;;;;;;;;18.50;99.90;;;;;;5033281;28;20009;-87
2023/07/24 08:38:31;;;;;;;;;;;18.70;99.90;;;;;;5035214;28;19928;-87
2023/07/24 08:41:13;;;;;;;;;;;18.70;99.90;;;;;;5036895;28;19913;-86
2023/07/24 08:43:39;;;;;;;;;;;18.80;99.90;;;;;;5037354;28;19920;-85
2023/07/24 08:46:05;;;;;;;;;;;18.80;99.90;;;;;;5037722;28;19921;-85
2023/07/24 08:48:35;;;;;;;;;;;19.00;99.90;;;;;;5046143;28;20704;-86
2023/07/24 08:51:11;;;;;;;;;;;19.10;99.90;;;;;;5036211;28;19978;-87
2023/07/24 08:53:38;;;;;;;;;;;19.20;99.90;;;;;;5037477;28;19912;-87
2023/07/24 08:56:04;;;;;;;;;;;19.30;99.90;;;;;;5037288;28;20391;-86
2023/07/24 08:58:30;;;;;;;;;;;19.50;99.90;;;;;;5053090;28;20724;-87
2023/07/24 09:00:56;;;;;;;;;;;19.70;99.90;;;;;;5042486;28;19920;-86
2023/07/24 09:03:21;;;;;;;;;;;19.90;99.90;;;;;;5052316;28;20465;-86
2023/07/24 09:05:47;;;;;;;;;;;20.00;99.90;;;;;;5034280;28;19917;-87
2023/07/24 09:08:13;;;;;;;;;;;20.10;99.90;;;;;;5035648;28;19967;-86
2023/07/24 09:10:38;;;;;;;;;;;20.20;99.90;;;;;;5068173;28;20492;-86
2023/07/24 09:13:04;;;;;;;;;;;20.20;99.90;;;;;;5053071;28;19959;-87
2023/07/24 09:15:39;;;;;;;;;;;20.30;99.90;;;;;;5047401;28;19927;-87
2023/07/24 09:18:04;;;;;;;;;;;20.50;99.90;;;;;;5039834;28;20362;-86
2023/07/24 09:20:37;;;;;;;;;;;20.60;99.90;;;;;;5035575;28;20247;-84
2023/07/24 09:23:03;;;;;;;;;;;20.70;99.90;;;;;;5052236;28;19921;-84
2023/07/24 09:25:32;;;;;;;;;;;20.70;99.90;;;;;;5043944;28;19926;-85
2023/07/24 09:27:58;;;;;;;;;;;20.70;99.90;;;;;;5050428;28;19928;-85
2023/07/24 09:30:24;;;;;;;;;;;20.70;99.90;;;;;;5036655;28;20322;-86
2023/07/24 09:32:53;;;;;;;;;;;20.70;99.90;;;;;;5036093;28;19921;-85
2023/07/24 09:35:19;;;;;;;;;;;20.70;99.90;;;;;;5035080;28;19925;-85
2023/07/24 09:37:44;;;;;;;;;;;20.70;99.90;;;;;;5036595;28;19913;-86
2023/07/24 09:40:10;;;;;;;;;;;20.80;99.90;;;;;;5034966;28;19921;-86
2023/07/24 09:42:36;;;;;;;;;;;21.50;99.90;;;;;;5051043;28;19921;-85
2023/07/24 09:45:02;;;;;;;;;;;22.30;99.90;;;;;;5052970;28;19916;-86
2023/07/24 09:47:28;;;;;;;;;;;22.30;99.90;;;;;;5034415;28;20283;-85
2023/07/24 09:49:54;;;;;;;;;;;22.00;99.90;;;;;;5033695;28;19936;-87
2023/07/24 09:52:20;;;;;;;;;;;21.70;99.90;;;;;;5049005;28;19943;-85
2023/07/24 09:54:51;;;;;;;;;;;21.40;99.90;;;;;;5043642;28;19917;-86
2023/07/24 09:57:17;;;;;;;;;;;21.10;99.90;;;;;;5051644;28;19944;-85
2023/07/24 09:59:42;;;;;;;;;;;21.00;99.90;;;;;;5037750;28;19919;-85
2023/07/24 10:02:11;;;;;;;;;;;21.00;99.90;;;;;;5033902;28;19917;-85
2023/07/24 10:04:37;;;;;;;;;;;21.00;99.90;;;;;;5049245;28;19921;-86
2023/07/24 10:07:04;;;;;;;;;;;21.00;99.90;;;;;;5033237;28;19917;-87
2023/07/24 10:09:29;;;;;;;;;;;20.90;99.90;;;;;;5032640;28;19933;-87
2023/07/24 10:11:56;;;;;;;;;;;20.40;99.90;;;;;;5035396;28;20058;-85
2023/07/24 10:14:21;;;;;;;;;;;20.00;99.90;;;;;;5035525;28;19932;-91
2023/07/24 10:16:49;;;;;;;;;;;19.80;99.90;;;;;;5048932;28;19917;-87
2023/07/24 10:19:15;;;;;;;;;;;19.90;99.90;;;;;;5035027;28;20712;-87
2023/07/24 10:21:46;;;;;;;;;;;20.00;99.90;;;;;;5049497;28;20012;-85
2023/07/24 10:24:11;;;;;;;;;;;20.20;99.90;;;;;;5034217;28;19970;-87
2023/07/24 10:26:37;;;;;;;;;;;20.30;99.90;;;;;;5051228;28;19916;-86
2023/07/24 10:29:02;;;;;;;;;;;20.40;99.90;;;;;;5033255;28;19925;-87
2023/07/24 10:31:28;;;;;;;;;;;20.40;99.90;;;;;;5032452;28;19920;-85
2023/07/24 10:33:55;;;;;;;;;;;20.50;99.90;;;;;;5031426;28;19924;-86
2023/07/24 10:36:22;;;;;;;;;;;20.50;99.90;;;;;;5041735;28;19916;-86
2023/07/24 10:38:57;;;;;;;;;;;20.50;99.90;;;;;;5034128;28;19999;-85
2023/07/24 10:41:22;;;;;;;;;;;20.40;99.90;;;;;;5036539;28;19917;-82
2023/07/24 10:43:48;;;;;;;;;;;20.40;99.90;;;;;;5034395;28;19912;-85
2023/07/24 10:46:15;;;;;;;;;;;20.30;99.90;;;;;;5033676;28;19919;-85
2023/07/24 10:48:44;;;;;;;;;;;20.30;99.90;;;;;;5033828;28;20367;-85
2023/07/24 10:51:10;;;;;;;;;;;20.30;99.90;;;;;;5033369;28;20020;-85
2023/07/24 10:53:37;;;;;;;;;;;20.30;99.90;;;;;;5034643;28;20011;-85
2023/07/24 10:56:03;;;;;;;;;;;20.30;99.90;;;;;;5034037;28;19921;-85
2023/07/24 10:58:29;;;;;;;;;;;20.30;99.90;;;;;;5032003;28;19917;-86
2023/07/24 11:00:55;;;;;;;;;;;20.30;99.90;;;;;;5047693;28;20062;-87
2023/07/24 11:03:21;;;;;;;;;;;20.30;99.90;;;;;;5041430;28;19923;-83
2023/07/24 11:05:47;;;;;;;;;;;20.30;99.90;;;;;;5030912;28;20306;-84
2023/07/24 11:08:19;;;;;;;;;;;20.30;99.90;;;;;;5032616;28;20467;-83
2023/07/24 11:10:46;;;;;;;;;;;20.40;99.90;;;;;;5049437;28;19929;-86
2023/07/24 11:13:11;;;;;;;;;;;20.60;99.90;;;;;;5043511;28;20014;-84
2023/07/24 11:15:37;;;;;;;;;;;20.80;99.90;;;;;;5032571;28;20312;-86
2023/07/24 11:18:03;;;;;;;;;;;21.00;99.90;;;;;;5032392;28;19967;-85
2023/07/24 11:20:29;;;;;;;;;;;21.20;99.90;;;;;;5048868;28;19922;-85
2023/07/24 11:22:57;;;;;;;;;;;21.40;99.90;;;;;;5044012;28;19923;-84
2023/07/24 11:25:23;;;;;;;;;;;21.50;99.90;;;;;;5032501;28;20025;-85
2023/07/24 11:27:49;;;;;;;;;;;21.50;99.90;;;;;;5034062;28;20027;-85
2023/07/24 11:30:19;;;;;;;;;;;21.40;99.90;;;;;;5030596;28;19925;-86
2023/07/24 11:32:44;;;;;;;;;;;21.20;99.90;;;;;;5034465;28;19974;-87
2023/07/24 11:35:10;;;;;;;;;;;21.00;99.90;;;;;;5035097;28;19917;-88
2023/07/24 11:37:36;;;;;;;;;;;20.80;99.90;;;;;;5045658;28;20015;-87
2023/07/24 11:40:14;;;;;;;;;;;20.60;99.90;;;;;;5032838;28;19921;-86
2023/07/24 11:42:40;;;;;;;;;;;20.30;99.90;;;;;;5047995;28;19923;-87
2023/07/24 11:45:07;;;;;;;;;;;20.20;99.90;;;;;;5048739;28;19916;-86
2023/07/24 11:47:41;;;;;;;;;;;20.30;99.90;;;;;;5035198;28;19920;-85
2023/07/24 11:50:08;;;;;;;;;;;20.50;99.90;;;;;;5033231;28;19972;-84
2023/07/24 11:52:50;;;;;;;;;;;20.80;99.90;;;;;;5034352;28;19917;-85
2023/07/24 11:55:17;;;;;;;;;;;21.00;99.90;;;;;;5032993;28;19917;-84
2023/07/24 11:57:42;;;;;;;;;;;21.30;99.90;;;;;;5050030;28;20359;-85
2023/07/24 12:00:18;;;;;;;;;;;21.40;99.90;;;;;;5034279;28;19920;-83
2023/07/24 12:02:43;;;;;;;;;;;21.40;99.90;;;;;;5032401;28;19928;-85
2023/07/24 12:05:09;;;;;;;;;;;21.60;99.90;;;;;;5033894;28;19921;-85
2023/07/24 12:07:35;;;;;;;;;;;21.90;99.90;;;;;;5033165;28;19990;-86
2023/07/24 12:10:02;;;;;;;;;;;22.50;99.90;;;;;;5035014;28;20347;-85
2023/07/24 12:12:57;;;;;;;;;;;23.00;99.90;;;;;;5034394;28;20015;-84
2023/07/24 12:15:22;;;;;;;;;;;23.00;99.90;;;;;;5038129;28;19960;-84
2023/07/24 12:17:48;;;;;;;;;;;23.20;99.90;;;;;;5038805;28;20047;-85
2023/07/24 12:20:13;;;;;;;;;;;23.50;99.90;;;;;;5040311;28;20493;-86
2023/07/24 12:22:39;;;;;;;;;;;23.90;99.90;;;;;;5042744;28;19917;-84
2023/07/24 12:25:07;;;;;;;;;;;24.00;99.90;;;;;;5051987;28;19920;-84
2023/07/24 12:27:32;;;;;;;;;;;23.70;99.90;;;;;;5037624;28;19975;-86
2023/07/24 12:29:59;;;;;;;;;;;23.60;99.90;;;;;;5046493;28;19925;-86
2023/07/24 12:32:24;;;;;;;;;;;23.60;99.90;;;;;;5037193;28;20063;-86
2023/07/24 12:34:50;;;;;;;;;;;23.60;99.90;;;;;;5057470;28;20533;-85
2023/07/24 12:37:17;;;;;;;;;;;23.40;99.90;;;;;;5043692;28;20375;-89
2023/07/24 12:39:43;;;;;;;;;;;23.10;99.90;;;;;;5059128;28;19995;-85
2023/07/24 12:42:08;;;;;;;;;;;22.80;99.90;;;;;;5034084;28;19995;-87
2023/07/24 12:44:33;;;;;;;;;;;22.70;99.90;;;;;;5045747;28;19963;-86
2023/07/24 12:46:59;;;;;;;;;;;23.00;99.90;;;;;;5053427;28;19920;-85
2023/07/24 12:49:24;;;;;;;;;;;23.40;99.90;;;;;;5045530;28;19925;-85
2023/07/24 12:51:50;;;;;;;;;;;23.80;99.90;;;;;;5046957;28;19921;-84
2023/07/24 12:54:16;;;;;;;;;;;24.00;99.90;;;;;;5055642;28;19917;-86
2023/07/24 12:56:41;;;;;;;;;;;24.10;99.90;;;;;;5037797;28;19944;-85
2023/07/24 12:59:07;;;;;;;;;;;24.00;99.90;;;;;;5035446;28;19977;-87
2023/07/24 13:01:32;;;;;;;;;;;24.60;99.90;;;;;;5042660;28;19917;-86
2023/07/24 13:04:00;;;;;;;;;;;25.40;99.90;;;;;;5033931;28;19955;-87
2023/07/24 13:06:25;;;;;;;;;;;25.90;99.90;;;;;;5042795;28;20002;-87
2023/07/24 13:08:51;;;;;;;;;;;26.50;99.90;;;;;;5052400;28;20376;-86
2023/07/24 13:11:17;;;;;;;;;;;26.60;99.90;;;;;;5034490;28;20516;-87
2023/07/24 13:13:43;;;;;;;;;;;26.60;99.90;;;;;;5049117;28;20063;-88
2023/07/24 13:16:08;;;;;;;;;;;26.70;99.90;;;;;;5032904;28;19916;-86
2023/07/24 13:18:34;;;;;;;;;;;27.00;99.90;;;;;;5035731;28;19917;-88
2023/07/24 13:20:59;;;;;;;;;;;27.40;99.90;;;;;;5049326;28;20511;-84
2023/07/24 13:23:25;;;;;;;;;;;27.80;99.90;;;;;;5033249;28;19917;-85
2023/07/24 13:25:53;;;;;;;;;;;28.20;99.90;;;;;;5050913;28;19917;-85
2023/07/24 13:28:19;;;;;;;;;;;28.60;99.90;;;;;;5036039;28;20378;-85
2023/07/24 13:30:45;;;;;;;;;;;28.40;99.90;;;;;;5036904;28;19935;-87
2023/07/24 13:33:11;;;;;;;;;;;28.00;99.90;;;;;;5038203;28;19939;-86
2023/07/24 13:35:36;;;;;;;;;;;27.40;99.90;;;;;;5038367;28;19917;-85
2023/07/24 13:38:02;;;;;;;;;;;27.10;99.90;;;;;;5037597;28;20868;-85
2023/07/24 13:40:27;;;;;;;;;;;27.20;99.90;;;;;;5045035;28;19958;-86
2023/07/24 13:42:53;;;;;;;;;;;27.00;99.90;;;;;;5052417;28;19916;-86
2023/07/24 13:45:18;;;;;;;;;;;27.00;99.90;;;;;;5052943;28;19943;-86
2023/07/24 13:47:44;;;;;;;;;;;27.10;99.90;;;;;;5037072;28;19923;-84
2023/07/24 13:50:09;;;;;;;;;;;27.20;99.90;;;;;;5034696;28;20415;-85
2023/07/24 13:52:35;;;;;;;;;;;27.80;99.90;;;;;;5051557;28;19920;-85
2023/07/24 13:55:00;;;;;;;;;;;28.20;99.90;;;;;;5050934;28;19916;-85
2023/07/24 13:57:26;;;;;;;;;;;28.40;99.90;;;;;;5034861;28;19921;-89
2023/07/24 13:59:52;;;;;;;;;;;28.50;99.90;;;;;;5036907;28;20004;-88
2023/07/24 14:02:18;;;;;;;;;;;28.30;99.90;;;;;;5038302;28;19951;-88
2023/07/24 14:04:44;;;;;;;;;;;27.60;99.90;;;;;;5034978;28;19924;-84
2023/07/24 14:07:09;;;;;;;;;;;27.30;99.90;;;;;;5035303;28;20274;-83
2023/07/24 14:09:35;;;;;;;;;;;27.30;99.90;;;;;;5033465;28;20647;-84